createdAt,value
2022-09-14T00:01:36.138Z,17.00
2022-09-14T00:04:08.608Z,16.92
2022-09-14T00:06:37.842Z,16.76
2022-09-14T00:09:06.925Z,16.73
2022-09-14T00:11:35.476Z,16.76
2022-09-14T00:14:07.781Z,16.77
2022-09-14T00:16:41.023Z,16.81
2022-09-14T00:19:22.940Z,16.90
2022-09-14T00:21:55.151Z,16.81
2022-09-14T00:24:22.492Z,16.79
2022-09-14T00:26:52.248Z,17.01
2022-09-14T00:29:18.865Z,16.91
2022-09-14T00:31:48.324Z,16.75
2022-09-14T00:34:16.253Z,16.80
2022-09-14T00:36:46.335Z,16.81
2022-09-14T00:39:13.627Z,16.95
2022-09-14T00:41:43.030Z,16.81
2022-09-14T00:44:14.845Z,16.73
2022-09-14T00:46:44.152Z,16.68
2022-09-14T00:49:32.708Z,16.72
2022-09-14T00:52:04.861Z,16.69
2022-09-14T00:54:31.448Z,16.72
2022-09-14T00:57:02.121Z,16.72
2022-09-14T00:59:32.916Z,16.73
2022-09-14T01:01:59.561Z,16.65
2022-09-14T01:04:28.361Z,16.69
2022-09-14T01:07:00.946Z,16.66
2022-09-14T01:09:40.748Z,16.68
2022-09-14T01:12:21.099Z,16.63
2022-09-14T01:15:05.749Z,16.67
2022-09-14T01:17:46.892Z,16.70
2022-09-14T01:20:24.745Z,16.53
2022-09-14T01:23:12.526Z,16.54
2022-09-14T01:26:00.384Z,16.65
2022-09-14T01:28:38.201Z,16.60
2022-09-14T01:31:20.577Z,16.64
2022-09-14T01:34:13.362Z,16.51
2022-09-14T01:36:45.714Z,16.58
2022-09-14T01:39:13.934Z,16.50
2022-09-14T01:41:42.432Z,16.54
2022-09-14T01:44:23.714Z,16.52
2022-09-14T01:47:05.172Z,16.69
2022-09-14T01:49:42.252Z,16.64
2022-09-14T01:52:21.702Z,16.65
2022-09-14T01:54:54.507Z,16.66
2022-09-14T01:57:41.977Z,16.60
2022-09-14T02:00:12.443Z,16.62
2022-09-14T02:02:44.446Z,16.72
2022-09-14T02:05:29.514Z,16.68
2022-09-14T02:07:58.708Z,16.54
2022-09-14T02:10:29.222Z,16.47
2022-09-14T02:12:56.103Z,16.52
2022-09-14T02:15:23.210Z,16.55
2022-09-14T02:17:49.840Z,16.59
2022-09-14T02:20:28.900Z,16.55
2022-09-14T02:22:57.887Z,16.62
2022-09-14T02:25:26.658Z,16.63
2022-09-14T02:27:55.459Z,16.77
2022-09-14T02:30:24.663Z,16.60
2022-09-14T02:33:08.465Z,16.55
2022-09-14T02:35:41.240Z,16.52
2022-09-14T02:38:30.983Z,16.53
2022-09-14T02:41:12.081Z,16.52
2022-09-14T02:43:43.972Z,16.56
2022-09-14T02:46:29.243Z,16.46
2022-09-14T02:49:16.099Z,16.49
2022-09-14T02:52:02.570Z,16.55
2022-09-14T02:54:39.462Z,16.51
2022-09-14T02:57:06.251Z,16.58
2022-09-14T02:59:32.728Z,16.58
2022-09-14T03:02:00.944Z,16.60
2022-09-14T03:04:28.440Z,16.57
2022-09-14T03:06:54.932Z,16.49
2022-09-14T03:09:21.353Z,16.49
2022-09-14T03:11:47.832Z,16.53
2022-09-14T03:14:14.344Z,16.52
2022-09-14T03:16:40.828Z,16.55
2022-09-14T03:19:07.372Z,16.59
2022-09-14T03:21:36.447Z,16.60
2022-09-14T03:24:03.205Z,16.59
2022-09-14T03:26:29.753Z,16.56
2022-09-14T03:28:58.592Z,16.54
2022-09-14T03:31:26.479Z,16.59
2022-09-14T03:33:58.368Z,16.68
2022-09-14T03:36:26.904Z,16.64
2022-09-14T03:38:55.913Z,16.63
2022-09-14T03:41:23.261Z,16.73
2022-09-14T03:43:50.228Z,16.62
2022-09-14T03:46:21.616Z,16.52
2022-09-14T03:48:48.599Z,16.47
2022-09-14T03:51:16.041Z,16.46
2022-09-14T03:53:44.838Z,16.57
2022-09-14T03:56:17.475Z,16.63
2022-09-14T03:58:45.534Z,16.52
2022-09-14T04:01:14.868Z,16.41
2022-09-14T04:03:44.229Z,16.42
2022-09-14T04:06:11.375Z,16.52
2022-09-14T04:08:39.844Z,16.45
2022-09-14T04:11:11.764Z,16.53
2022-09-14T04:13:39.274Z,16.52
2022-09-14T04:16:05.721Z,16.54
2022-09-14T04:18:32.888Z,16.49
2022-09-14T04:21:08.464Z,16.46
2022-09-14T04:24:10.262Z,16.48
2022-09-14T04:26:27.119Z,16.46
2022-09-14T04:28:53.972Z,16.47
2022-09-14T04:31:20.630Z,16.50
2022-09-14T04:33:50.492Z,16.59
2022-09-14T04:36:19.796Z,16.62
2022-09-14T04:38:46.851Z,16.68
2022-09-14T04:41:18.168Z,16.74
2022-09-14T04:43:46.063Z,16.67
2022-09-14T04:46:18.833Z,16.63
2022-09-14T04:48:45.715Z,16.59
2022-09-14T04:51:16.692Z,16.60
2022-09-14T04:53:44.635Z,16.62
2022-09-14T04:56:13.164Z,16.60
2022-09-14T04:58:46.257Z,16.54
2022-09-14T05:01:21.995Z,16.65
2022-09-14T05:03:48.829Z,16.66
2022-09-14T05:06:26.805Z,16.62
2022-09-14T05:08:54.516Z,16.77
2022-09-14T05:11:26.692Z,16.90
2022-09-14T05:13:55.027Z,16.91
2022-09-14T05:16:23.255Z,16.99
2022-09-14T05:18:51.707Z,16.93
2022-09-14T05:21:20.095Z,16.93
2022-09-14T05:23:46.971Z,16.84
2022-09-14T05:26:14.419Z,16.80
2022-09-14T05:28:41.169Z,16.90
2022-09-14T05:31:10.324Z,16.95
2022-09-14T05:33:37.066Z,16.94
2022-09-14T05:36:08.224Z,16.99
2022-09-14T05:38:36.315Z,17.02
2022-09-14T05:41:02.985Z,17.12
2022-09-14T05:43:29.993Z,17.17
2022-09-14T05:45:56.489Z,17.19
2022-09-14T05:48:23.007Z,17.13
2022-09-14T05:50:58.089Z,17.23
2022-09-14T05:53:26.703Z,17.20
2022-09-14T05:56:10.693Z,17.24
2022-09-14T05:58:37.740Z,17.18
2022-09-14T06:01:41.527Z,17.18
2022-09-14T06:04:11.103Z,17.21
2022-09-14T06:06:37.586Z,17.19
2022-09-14T06:09:04.757Z,17.28
2022-09-14T06:11:36.125Z,17.26
2022-09-14T06:14:02.994Z,17.38
2022-09-14T06:16:29.681Z,17.41
2022-09-14T06:18:58.732Z,17.39
2022-09-14T06:21:29.405Z,17.47
2022-09-14T06:23:56.059Z,17.49
2022-09-14T06:26:22.778Z,17.49
2022-09-14T06:28:49.424Z,17.43
2022-09-14T06:31:17.721Z,17.45
2022-09-14T06:33:48.120Z,17.49
2022-09-14T06:36:17.828Z,17.42
2022-09-14T06:38:44.402Z,17.43
2022-09-14T06:41:13.671Z,17.54
2022-09-14T06:43:42.217Z,17.59
2022-09-14T06:46:20.085Z,17.54
2022-09-14T06:48:52.907Z,17.53
2022-09-14T06:51:29.983Z,17.54
2022-09-14T06:54:01.409Z,17.66
2022-09-14T06:56:33.526Z,17.68
2022-09-14T06:59:00.076Z,17.69
2022-09-14T07:01:29.882Z,17.84
2022-09-14T07:03:58.062Z,18.04
2022-09-14T07:06:26.527Z,18.06
2022-09-14T07:08:53.529Z,18.21
2022-09-14T07:11:23.592Z,18.30
2022-09-14T07:13:50.017Z,18.35
2022-09-14T07:16:16.906Z,18.41
2022-09-14T07:18:43.393Z,18.46
2022-09-14T07:21:15.077Z,18.61
2022-09-14T07:23:46.300Z,18.72
2022-09-14T07:26:15.444Z,18.65
2022-09-14T07:28:43.594Z,18.74
2022-09-14T07:31:22.804Z,18.77
2022-09-14T07:33:54.036Z,18.88
2022-09-14T07:36:21.543Z,18.99
2022-09-14T07:38:52.986Z,18.83
2022-09-14T07:41:29.837Z,18.97
2022-09-14T07:44:00.311Z,18.97
2022-09-14T07:46:33.236Z,18.95
2022-09-14T07:49:04.877Z,18.94
2022-09-14T07:51:32.634Z,19.02
2022-09-14T07:54:01.984Z,18.95
2022-09-14T07:56:29.019Z,18.87
2022-09-14T07:59:11.557Z,18.90
2022-09-14T08:01:44.240Z,19.00
2022-09-14T08:04:11.074Z,19.07
2022-09-14T08:06:37.703Z,19.18
2022-09-14T08:09:11.149Z,19.34
2022-09-14T08:11:38.028Z,19.43
2022-09-14T08:14:07.273Z,19.59
2022-09-14T08:16:34.861Z,19.93
2022-09-14T08:19:04.016Z,20.27
2022-09-14T08:21:32.145Z,20.44
2022-09-14T08:24:02.453Z,20.35
2022-09-14T08:26:30.023Z,20.35
2022-09-14T08:28:57.270Z,20.55
2022-09-14T08:31:25.358Z,20.75
2022-09-14T08:33:54.924Z,20.95
2022-09-14T08:36:22.641Z,21.12
2022-09-14T08:38:49.183Z,21.25
2022-09-14T08:41:25.366Z,21.49
2022-09-14T08:43:52.417Z,21.61
2022-09-14T08:46:49.647Z,21.80
2022-09-14T08:49:38.002Z,22.07
2022-09-14T08:52:05.292Z,22.22
2022-09-14T08:54:37.168Z,22.46
2022-09-14T08:57:39.160Z,22.69
2022-09-14T09:00:14.932Z,23.07
2022-09-14T09:02:50.643Z,23.49
2022-09-14T09:05:49.708Z,23.78
2022-09-14T09:08:24.622Z,24.21
2022-09-14T09:10:54.315Z,24.31
2022-09-14T09:13:25.439Z,24.24
2022-09-14T09:15:55.076Z,24.28
2022-09-14T09:18:43.056Z,24.47
2022-09-14T09:21:20.704Z,24.77
2022-09-14T09:23:47.142Z,24.73
2022-09-14T09:26:28.226Z,24.60
2022-09-14T09:28:57.988Z,24.77
2022-09-14T09:31:38.921Z,24.68
2022-09-14T09:34:06.411Z,24.55
2022-09-14T09:36:39.189Z,24.62
2022-09-14T09:39:06.152Z,24.77
2022-09-14T09:41:57.602Z,25.23
2022-09-14T09:44:26.300Z,25.48
2022-09-14T09:46:59.333Z,25.56
2022-09-14T09:49:31.486Z,25.62
2022-09-14T09:52:19.623Z,26.23
2022-09-14T09:54:52.352Z,27.73
2022-09-14T09:57:21.643Z,28.45
2022-09-14T09:59:48.578Z,28.68
2022-09-14T10:02:32.170Z,29.12
2022-09-14T10:05:01.652Z,28.89
2022-09-14T10:07:30.115Z,28.68
2022-09-14T10:09:58.693Z,28.56
2022-09-14T10:12:25.440Z,28.24
2022-09-14T10:15:05.327Z,28.18
2022-09-14T10:17:31.831Z,28.00
2022-09-14T10:19:59.017Z,28.00
2022-09-14T10:22:37.957Z,28.09
2022-09-14T10:25:22.943Z,28.11
2022-09-14T10:27:58.938Z,27.96
2022-09-14T10:30:38.204Z,28.06
2022-09-14T10:33:08.911Z,28.06
2022-09-14T10:35:45.879Z,28.24
2022-09-14T10:38:32.453Z,28.31
2022-09-14T10:41:31.266Z,28.03
2022-09-14T10:44:19.685Z,28.15
2022-09-14T10:47:04.672Z,28.02
2022-09-14T10:49:44.150Z,27.85
2022-09-14T10:52:13.999Z,27.78
2022-09-14T10:55:07.626Z,27.71
2022-09-14T10:57:49.789Z,27.60
2022-09-14T11:00:23.683Z,27.61
2022-09-14T11:03:16.217Z,27.43
2022-09-14T11:06:18.065Z,27.40
2022-09-14T11:09:05.509Z,27.38
2022-09-14T11:11:58.090Z,27.25
2022-09-14T11:14:42.900Z,27.33
2022-09-14T11:17:35.602Z,27.33
2022-09-14T11:20:26.587Z,27.50
2022-09-14T11:23:18.552Z,27.63
2022-09-14T11:26:08.276Z,27.90
2022-09-14T11:28:42.381Z,27.90
2022-09-14T11:31:55.291Z,27.92
2022-09-14T11:34:36.940Z,27.94
2022-09-14T11:37:19.180Z,27.88
2022-09-14T11:39:52.145Z,27.92
2022-09-14T11:42:27.868Z,28.16
2022-09-14T11:45:02.339Z,28.27
2022-09-14T11:47:44.225Z,28.33
2022-09-14T11:50:33.056Z,28.29
2022-09-14T11:53:15.062Z,28.02
2022-09-14T11:55:50.132Z,27.85
2022-09-14T11:58:31.297Z,27.82
2022-09-14T12:01:25.765Z,27.71
2022-09-14T12:03:54.245Z,27.90
2022-09-14T12:06:29.954Z,27.95
2022-09-14T12:09:21.126Z,27.96
2022-09-14T12:11:53.750Z,27.80
2022-09-14T12:14:32.670Z,28.01
2022-09-14T12:17:22.813Z,28.31
2022-09-14T12:19:55.623Z,28.67
2022-09-14T12:22:39.420Z,28.70
2022-09-14T12:25:05.871Z,28.85
2022-09-14T12:27:36.823Z,29.12
2022-09-14T12:30:38.409Z,29.25
2022-09-14T12:33:34.798Z,29.62
2022-09-14T12:36:05.504Z,29.56
2022-09-14T12:38:31.880Z,29.67
2022-09-14T12:41:09.443Z,29.80
2022-09-14T12:43:35.841Z,29.63
2022-09-14T12:46:04.093Z,29.23
2022-09-14T12:48:45.916Z,29.30
2022-09-14T12:51:36.594Z,29.30
2022-09-14T12:54:09.030Z,29.53
2022-09-14T12:57:02.707Z,29.72
2022-09-14T12:59:52.943Z,29.57
2022-09-14T13:03:05.796Z,29.13
2022-09-14T13:05:34.292Z,28.96
2022-09-14T13:08:01.737Z,28.81
2022-09-14T13:10:34.490Z,28.70
2022-09-14T13:13:05.381Z,28.76
2022-09-14T13:15:37.953Z,28.73
2022-09-14T13:18:17.958Z,28.60
2022-09-14T13:20:53.127Z,28.61
2022-09-14T13:23:42.133Z,28.48
2022-09-14T13:26:18.982Z,28.49
2022-09-14T13:28:48.000Z,28.59
2022-09-14T13:31:19.044Z,28.52
2022-09-14T13:33:50.772Z,28.42
2022-09-14T13:36:23.940Z,28.24
2022-09-14T13:38:53.184Z,28.22
2022-09-14T13:41:24.599Z,28.29
2022-09-14T13:43:55.991Z,28.27
2022-09-14T13:46:24.535Z,28.31
2022-09-14T13:48:52.313Z,28.18
2022-09-14T13:51:26.182Z,28.21
2022-09-14T13:54:15.779Z,28.17
2022-09-14T13:56:42.393Z,28.11
2022-09-14T13:59:09.099Z,28.09
2022-09-14T14:01:39.340Z,28.11
2022-09-14T14:04:24.066Z,28.01
2022-09-14T14:07:14.622Z,27.95
2022-09-14T14:09:53.314Z,27.93
2022-09-14T14:12:28.490Z,27.79
2022-09-14T14:14:58.068Z,27.71
2022-09-14T14:17:30.506Z,27.66
2022-09-14T14:19:59.430Z,27.70
2022-09-14T14:22:33.700Z,27.72
2022-09-14T14:25:17.040Z,27.71
2022-09-14T14:27:48.508Z,27.68
2022-09-14T14:30:17.640Z,27.73
2022-09-14T14:32:48.920Z,27.79
2022-09-14T14:35:18.622Z,27.78
2022-09-14T14:37:45.016Z,27.91
2022-09-14T14:40:12.731Z,27.94
2022-09-14T14:42:39.833Z,27.85
2022-09-14T14:45:07.095Z,27.81
2022-09-14T14:47:33.663Z,27.67
2022-09-14T14:50:00.276Z,27.62
2022-09-14T14:52:26.868Z,27.68
2022-09-14T14:54:53.301Z,27.59
2022-09-14T14:57:19.712Z,27.61
2022-09-14T14:59:47.012Z,27.70
2022-09-14T15:02:13.430Z,27.67
2022-09-14T15:04:42.275Z,27.53
2022-09-14T15:07:08.772Z,27.28
2022-09-14T15:09:35.465Z,27.20
2022-09-14T15:12:02.172Z,27.11
2022-09-14T15:14:31.255Z,26.91
2022-09-14T15:17:00.077Z,27.17
2022-09-14T15:19:26.987Z,27.24
2022-09-14T15:21:57.281Z,27.27
2022-09-14T15:24:27.124Z,27.23
2022-09-14T15:26:54.180Z,27.19
2022-09-14T15:29:20.619Z,27.13
2022-09-14T15:31:47.159Z,27.09
2022-09-14T15:34:16.133Z,27.04
2022-09-14T15:36:51.633Z,27.01
2022-09-14T15:39:23.341Z,26.87
2022-09-14T15:41:52.669Z,26.91
2022-09-14T15:44:19.635Z,26.87
2022-09-14T15:46:46.886Z,26.79
2022-09-14T15:49:17.918Z,26.78
2022-09-14T15:51:46.382Z,26.75
2022-09-14T15:54:13.542Z,26.69
2022-09-14T15:56:40.369Z,26.69
2022-09-14T15:59:07.325Z,26.58
2022-09-14T16:01:33.953Z,26.58
2022-09-14T16:04:10.866Z,26.51
2022-09-14T16:06:38.644Z,26.30
2022-09-14T16:09:07.253Z,26.20
2022-09-14T16:11:35.433Z,26.15
2022-09-14T16:14:07.441Z,26.06
2022-09-14T16:16:35.284Z,26.00
2022-09-14T16:19:10.850Z,25.83
2022-09-14T16:21:37.839Z,25.71
2022-09-14T16:24:07.733Z,25.69
2022-09-14T16:26:38.210Z,25.65
2022-09-14T16:29:08.292Z,25.53
2022-09-14T16:31:37.499Z,25.37
2022-09-14T16:34:12.939Z,25.32
2022-09-14T16:36:40.633Z,25.13
2022-09-14T16:39:11.373Z,24.85
2022-09-14T16:41:40.408Z,24.54
2022-09-14T16:44:06.984Z,24.07
2022-09-14T16:46:34.180Z,23.70
2022-09-14T16:49:00.793Z,23.61
2022-09-14T16:51:29.878Z,23.37
2022-09-14T16:53:57.607Z,23.07
2022-09-14T16:56:26.584Z,22.86
2022-09-14T16:58:55.084Z,22.55
2022-09-14T17:01:28.583Z,22.29
2022-09-14T17:03:56.543Z,22.05
2022-09-14T17:06:26.100Z,21.96
2022-09-14T17:08:54.764Z,21.98
2022-09-14T17:11:21.487Z,21.78
2022-09-14T17:13:47.970Z,21.71
2022-09-14T17:16:20.590Z,21.50
2022-09-14T17:18:51.122Z,21.64
2022-09-14T17:21:23.392Z,21.51
2022-09-14T17:23:50.214Z,21.51
2022-09-14T17:26:19.229Z,21.48
2022-09-14T17:28:47.443Z,21.41
2022-09-14T17:31:18.645Z,21.41
2022-09-14T17:33:45.954Z,21.47
2022-09-14T17:36:14.648Z,21.46
2022-09-14T17:38:42.766Z,21.35
2022-09-14T17:41:12.076Z,21.32
2022-09-14T17:43:40.183Z,21.34
2022-09-14T17:46:09.884Z,21.23
2022-09-14T17:48:38.678Z,21.22
2022-09-14T17:51:14.465Z,21.17
2022-09-14T17:53:44.016Z,21.01
2022-09-14T17:56:15.819Z,21.00
2022-09-14T17:58:43.596Z,21.04
2022-09-14T18:01:14.909Z,21.00
2022-09-14T18:03:44.026Z,20.97
2022-09-14T18:06:12.487Z,20.95
2022-09-14T18:08:42.242Z,20.86
2022-09-14T18:11:17.003Z,20.68
2022-09-14T18:13:46.172Z,20.68
2022-09-14T18:16:14.877Z,20.57
2022-09-14T18:18:42.406Z,20.52
2022-09-14T18:21:11.815Z,20.53
2022-09-14T18:23:38.313Z,20.53
2022-09-14T18:26:06.807Z,20.50
2022-09-14T18:28:34.616Z,20.51
2022-09-14T18:31:07.063Z,20.45
2022-09-14T18:33:33.966Z,20.49
2022-09-14T18:36:00.773Z,20.45
2022-09-14T18:38:30.097Z,20.44
2022-09-14T18:41:06.025Z,20.40
2022-09-14T18:43:32.802Z,20.41
2022-09-14T18:45:59.306Z,20.41
2022-09-14T18:48:26.270Z,20.38
2022-09-14T18:50:55.387Z,20.39
2022-09-14T18:53:21.770Z,20.41
2022-09-14T18:55:48.206Z,20.40
2022-09-14T18:58:16.863Z,20.38
2022-09-14T19:00:46.564Z,20.34
2022-09-14T19:03:13.389Z,20.35
2022-09-14T19:05:43.627Z,20.29
2022-09-14T19:08:13.436Z,20.32
2022-09-14T19:10:40.252Z,20.27
2022-09-14T19:13:07.783Z,20.24
2022-09-14T19:15:34.442Z,20.25
2022-09-14T19:18:00.958Z,20.24
2022-09-14T19:20:43.030Z,20.10
2022-09-14T19:23:13.795Z,20.18
2022-09-14T19:25:40.509Z,20.21
2022-09-14T19:28:07.633Z,20.24
2022-09-14T19:30:36.404Z,20.24
2022-09-14T19:33:03.057Z,20.04
2022-09-14T19:35:30.215Z,19.93
2022-09-14T19:37:57.838Z,19.93
2022-09-14T19:40:24.560Z,19.94
2022-09-14T19:42:51.917Z,19.93
2022-09-14T19:45:18.752Z,19.85
2022-09-14T19:47:45.698Z,19.88
2022-09-14T19:50:12.194Z,19.79
2022-09-14T19:52:38.688Z,19.83
2022-09-14T19:55:05.584Z,19.84
2022-09-14T19:57:32.303Z,19.80
2022-09-14T19:59:58.754Z,19.85
2022-09-14T20:02:25.556Z,19.92
2022-09-14T20:04:52.238Z,19.89
2022-09-14T20:07:19.102Z,19.82
2022-09-14T20:09:45.696Z,19.61
2022-09-14T20:12:12.335Z,19.54
2022-09-14T20:14:38.817Z,19.50
2022-09-14T20:17:06.446Z,19.47
2022-09-14T20:19:33.127Z,19.43
2022-09-14T20:21:59.542Z,19.61
2022-09-14T20:24:28.177Z,19.56
2022-09-14T20:26:59.337Z,19.48
2022-09-14T20:29:30.032Z,19.40
2022-09-14T20:31:57.168Z,19.33
2022-09-14T20:34:23.747Z,19.43
2022-09-14T20:36:52.093Z,19.46
2022-09-14T20:39:19.973Z,19.42
2022-09-14T20:41:46.768Z,19.24
2022-09-14T20:44:13.849Z,19.25
2022-09-14T20:46:43.713Z,19.35
2022-09-14T20:49:12.413Z,19.47
2022-09-14T20:51:39.836Z,19.53
2022-09-14T20:54:10.444Z,19.54
2022-09-14T20:56:37.192Z,19.50
2022-09-14T20:59:09.510Z,19.47
2022-09-14T21:01:38.296Z,19.42
2022-09-14T21:04:09.082Z,19.41
2022-09-14T21:06:37.948Z,19.42
2022-09-14T21:09:08.801Z,19.36
2022-09-14T21:11:35.640Z,19.35
2022-09-14T21:14:02.566Z,19.28
2022-09-14T21:16:37.772Z,19.28
2022-09-14T21:19:07.188Z,19.28
2022-09-14T21:21:34.216Z,19.25
2022-09-14T21:24:05.546Z,19.13
2022-09-14T21:26:34.678Z,19.08
2022-09-14T21:29:06.306Z,19.02
2022-09-14T21:31:34.990Z,18.99
2022-09-14T21:34:02.867Z,19.01
2022-09-14T21:36:35.956Z,19.00
2022-09-14T21:39:08.459Z,19.05
2022-09-14T21:41:35.922Z,18.97
2022-09-14T21:44:02.714Z,18.97
2022-09-14T21:46:29.237Z,18.92
2022-09-14T21:48:56.612Z,18.86
2022-09-14T21:51:31.800Z,18.93
2022-09-14T21:54:00.442Z,18.88
2022-09-14T21:56:31.563Z,18.88
2022-09-14T21:59:02.400Z,18.71
2022-09-14T22:01:29.953Z,18.78
2022-09-14T22:03:57.446Z,18.76
2022-09-14T22:06:31.157Z,18.75
2022-09-14T22:09:00.970Z,18.70
2022-09-14T22:11:31.259Z,18.85
2022-09-14T22:14:06.082Z,18.70
2022-09-14T22:16:34.994Z,18.68
2022-09-14T22:19:06.614Z,18.59
2022-09-14T22:21:35.906Z,18.73
2022-09-14T22:24:14.631Z,18.54
2022-09-14T22:26:42.312Z,18.41
2022-09-14T22:29:09.099Z,18.29
2022-09-14T22:31:38.091Z,18.33
2022-09-14T22:34:08.130Z,18.23
2022-09-14T22:36:37.664Z,18.24
2022-09-14T22:39:05.083Z,18.25
2022-09-14T22:41:31.659Z,18.26
2022-09-14T22:43:58.122Z,18.29
2022-09-14T22:46:25.399Z,18.31
2022-09-14T22:48:53.149Z,18.32
2022-09-14T22:51:22.369Z,18.41
2022-09-14T22:53:49.395Z,18.52
2022-09-14T22:56:21.897Z,18.56
2022-09-14T22:58:49.485Z,18.63
2022-09-14T23:01:39.387Z,18.65
2022-09-14T23:04:09.333Z,18.77
2022-09-14T23:06:38.502Z,18.88
2022-09-14T23:09:06.118Z,18.94
2022-09-14T23:11:32.907Z,18.95
2022-09-14T23:13:59.346Z,18.98
2022-09-14T23:16:28.872Z,19.02
2022-09-14T23:18:58.814Z,19.13
2022-09-14T23:21:28.604Z,19.17
2022-09-14T23:24:00.792Z,19.12
2022-09-14T23:26:27.800Z,19.14
2022-09-14T23:28:58.105Z,19.20
2022-09-14T23:31:25.665Z,19.20
2022-09-14T23:33:53.906Z,19.19
2022-09-14T23:36:24.944Z,19.20
2022-09-14T23:38:52.322Z,19.14
2022-09-14T23:41:22.554Z,19.18
2022-09-14T23:43:49.533Z,19.21
2022-09-14T23:46:19.126Z,19.17
2022-09-14T23:48:46.718Z,19.17
2022-09-14T23:51:15.407Z,19.14
2022-09-14T23:53:44.768Z,19.15
2022-09-14T23:56:11.425Z,19.10
2022-09-14T23:58:39.789Z,19.17
